McFarlan, North Carolina
Current Conditions -  °F | °C
As of 8:35 AM on Saturday 25 Oct 2014 (Local Time) from KCQW Reporting Station
Clear Clear  
Wind Chill: 43°   Ceiling: Unl
Heat Index: 43°   Visibility: 8mi
Dew Point: 43°   Wind: 3mph
Humidity: 100%   Direction: 180°S
Pressure: 30.04"   Gusts: NA
Location:  34.81°N, 79.98°W
Report Text: KCQW 251235Z AUTO 18003KT 8SM CLR 06/06 A3004 RMK AO2
Loading
Personal Weather Stations






























Interactive Weather Map
Tropical Storm Tracking
New forecast layout! Learn more

10-Day Weather Forecast

Advertisements
Track Severe Weather on mobile